Terminal Aerodrome Forecast
Issued by NWS

Home | Current Version | Previous Version | Text Only | Print | Product List | Glossary On
Versions: 1 2 3 4 5 6 7 8 9 10 11 12 13 14 15 16
000
FTPA31 PHFO 221740
TAFHOG
TAF
PHOG 221740Z 2218/2318 04008KT P6SM FEW035
     FM221900 05012G18KT P6SM FEW060
     FM222200 06020G27KT P6SM SCT060
     FM230600 06009KT P6SM FEW045=

USA.gov is the U.S. government's official web portal to all federal, state and local government web resources and services.